Orenge 7 — JL6148 — position and weather

sailwx.info

Track history (hours):
 
Tides and Currents Weather Stations Pressure Air Temp Water Temp Dewpoint Dewpoint Depression Visibility Wind Speed Wind Dir Waves Ship Positions

Orenge 7

Last reported at 2016-Dec-08 14:33 UTC. Time now 2016-Dec-09 09:40 UTC.
Position N 34°37' E 134°58'.

Length 163 m; draft 4.9 m.

Type: Passenger vessel. MMSI: 431500186.

Date/timePositionNaut miles runAvg speedWind from/ knotsBaromVisibWave heightAir tempDewpointWater temp
2016-Dec-08 14:33N 34°37' E 134°58'1717.2
2016-Dec-08 13:33N 34°36' E 135°19'6 5.7
2016-Dec-08 12:29N 34°37' E 135°26'0 0.0
2016-Dec-08 11:23N 34°37' E 135°26'0 0.0
2016-Dec-08 10:23N 34°37' E 135°26'0 0.0
2016-Dec-08 09:29N 34°37' E 135°26'0 0.0
2016-Dec-08 08:23N 34°37' E 135°26'0 0.0
2016-Dec-08 07:11N 34°37' E 135°26'0 0.0
2016-Dec-08 06:29N 34°37' E 135°26'0 0.0
2016-Dec-08 05:17N 34°37' E 135°26'0 0.0
2016-Dec-08 04:29N 34°37' E 135°26'0 0.0
2016-Dec-08 03:29N 34°37' E 135°26'0 0.0
2016-Dec-08 02:29N 34°37' E 135°26'0 0.0
2016-Dec-08 01:29N 34°37' E 135°26'0 0.0
2016-Dec-08 00:23N 34°37' E 135°26'0 0.0
2016-Dec-07 23:29N 34°37' E 135°26'0 0.0
2016-Dec-07 22:23N 34°37' E 135°26'0 0.0
2016-Dec-07 21:23N 34°37' E 135°26'6 7.0
2016-Dec-07 20:33N 34°36' E 135°19'1817.6
2016-Dec-07 19:33N 34°37' E 134°58'1 0.0
2016-Dec-06 14:32N 34°37' E 134°57'1818.2
2016-Dec-06 13:33N 34°37' E 135°18'6 6.0
2016-Dec-06 12:32N 34°37' E 135°26'0 0.0
2016-Dec-06 11:32N 34°37' E 135°26'0 0.0
2016-Dec-06 10:32N 34°37' E 135°26'0 0.0
2016-Dec-06 09:32N 34°37' E 135°26'0 0.0
2016-Dec-06 08:32N 34°37' E 135°26'0 0.0
2016-Dec-06 07:32N 34°37' E 135°26'0 0.0
2016-Dec-06 06:32N 34°37' E 135°26'0 0.0
2016-Dec-06 05:32N 34°37' E 135°26'0 0.0
2016-Dec-06 04:26N 34°37' E 135°26'0 0.0
2016-Dec-06 03:32N 34°37' E 135°26'0 0.0
2016-Dec-06 02:33N 34°37' E 135°26'0 0.0
2016-Dec-06 01:20N 34°37' E 135°26'0 0.0
2016-Dec-06 00:32N 34°37' E 135°26'0 0.0
2016-Dec-05 23:26N 34°37' E 135°26'0 0.0
2016-Dec-05 22:09N 34°37' E 135°26'0 0.0
2016-Dec-05 21:26N 34°37' E 135°26'5 6.2
2016-Dec-05 20:33N 34°36' E 135°19'1817.6
2016-Dec-05 19:33N 34°37' E 134°58'2 0.1
2016-Dec-04 14:33N 34°36' E 134°55'1918.7
2016-Dec-04 13:33N 34°36' E 135°18'7 5.5
2016-Dec-04 12:21N 34°37' E 135°26'0 0.0
2016-Dec-04 11:33N 34°37' E 135°26'0 0.0
2016-Dec-04 10:33N 34°37' E 135°26'0 0.0
2016-Dec-04 09:27N 34°37' E 135°26'0 0.0
2016-Dec-04 08:33N 34°37' E 135°26'0 0.0
2016-Dec-04 07:27N 34°37' E 135°26'0 0.0
2016-Dec-04 06:27N 34°37' E 135°26'0 0.0
2016-Dec-04 05:33N 34°37' E 135°26'0 0.0
2016-Dec-04 04:27N 34°37' E 135°26'0 0.0
2016-Dec-04 03:33N 34°37' E 135°26'0 0.0
2016-Dec-04 02:27N 34°37' E 135°26'0 0.0
2016-Dec-04 01:27N 34°37' E 135°26'0 0.0
2016-Dec-04 00:21N 34°37' E 135°26'0 0.0
2016-Dec-03 23:33N 34°37' E 135°26'0 0.0
2016-Dec-03 22:33N 34°37' E 135°26'0 0.0
2016-Dec-03 21:33N 34°37' E 135°26'5 4.9
2016-Dec-03 20:33N 34°36' E 135°20'1717.4
2016-Dec-03 19:33N 34°37' E 134°59'3 0.1
2016-Dec-02 14:30N 34°36' E 134°56'1919.6
2016-Dec-02 13:33N 34°36' E 135°18'6 6.2
2016-Dec-02 12:32N 34°37' E 135°26'0 0.0
2016-Dec-02 11:32N 34°37' E 135°26'0 0.0
2016-Dec-02 10:20N 34°37' E 135°26'0 0.0
2016-Dec-02 09:32N 34°37' E 135°26'0 0.0
2016-Dec-02 08:26N 34°37' E 135°26'0 0.0
2016-Dec-02 07:32N 34°37' E 135°26'0 0.0
2016-Dec-02 06:32N 34°37' E 135°26'0 0.0
2016-Dec-02 05:32N 34°37' E 135°26'0 0.0
2016-Dec-02 04:32N 34°37' E 135°26'0 0.0
2016-Dec-02 03:14N 34°37' E 135°26'0 0.0
2016-Dec-02 02:26N 34°37' E 135°26'0 0.0
2016-Dec-02 01:20N 34°37' E 135°26'0 0.0
2016-Dec-01 23:26N 34°37' E 135°26'0 0.0
2016-Dec-01 22:26N 34°37' E 135°26'0 0.0
2016-Dec-01 21:32N 34°37' E 135°26'6 5.7
2016-Dec-01 20:33N 34°36' E 135°19'1717.0
2016-Dec-01 19:34N 34°37' E 134°59'3 0.1
2016-Nov-30 14:33N 34°36' E 134°56'1919.1
2016-Nov-30 13:34N 34°37' E 135°18'6 1.8
2016-Nov-30 10:14N 34°37' E 135°26'0 0.0
2016-Nov-30 09:20N 34°37' E 135°26'0 0.0
2016-Nov-30 08:32N 34°37' E 135°26'0 0.0
2016-Nov-30 06:32N 34°37' E 135°26'0 0.0
2016-Nov-30 05:32N 34°37' E 135°26'0 0.0
2016-Nov-30 04:32N 34°37' E 135°26'0 0.0
2016-Nov-30 03:20N 34°37' E 135°26'0 0.0
2016-Nov-30 02:08N 34°37' E 135°26'0 0.0
2016-Nov-30 00:14N 34°37' E 135°26'0 0.0
2016-Nov-29 23:26N 34°37' E 135°26'0 0.0
2016-Nov-29 21:10N 34°37' E 135°26'610.6
2016-Nov-29 20:33N 34°36' E 135°18'1716.6
2016-Nov-29 19:33N 34°37' E 134°58'  
Track history (hours):
 
Tides and Currents Weather Stations Pressure Air Temp Water Temp Dewpoint Dewpoint Depression Visibility Wind Speed Wind Dir Waves Ship Positions

Orenge 7

Last reported at 2016-Dec-08 14:33 UTC. Time now 2016-Dec-09 09:40 UTC.
Position N 34°37' E 134°58'.

Length 163 m; draft 4.9 m.

Type: Passenger vessel. MMSI: 431500186.

Date/timePositionNaut miles runAvg speedWind from/ knotsBaromVisibWave heightAir tempDewpointWater temp
2016-Dec-08 14:33N 34°37' E 134°58'1717.2
2016-Dec-08 13:33N 34°36' E 135°19'6 5.7
2016-Dec-08 12:29N 34°37' E 135°26'0 0.0
2016-Dec-08 11:23N 34°37' E 135°26'0 0.0
2016-Dec-08 10:23N 34°37' E 135°26'0 0.0
2016-Dec-08 09:29N 34°37' E 135°26'0 0.0
2016-Dec-08 08:23N 34°37' E 135°26'0 0.0
2016-Dec-08 07:11N 34°37' E 135°26'0 0.0
2016-Dec-08 06:29N 34°37' E 135°26'0 0.0
2016-Dec-08 05:17N 34°37' E 135°26'0 0.0
2016-Dec-08 04:29N 34°37' E 135°26'0 0.0
2016-Dec-08 03:29N 34°37' E 135°26'0 0.0
2016-Dec-08 02:29N 34°37' E 135°26'0 0.0
2016-Dec-08 01:29N 34°37' E 135°26'0 0.0
2016-Dec-08 00:23N 34°37' E 135°26'0 0.0
2016-Dec-07 23:29N 34°37' E 135°26'0 0.0
2016-Dec-07 22:23N 34°37' E 135°26'0 0.0
2016-Dec-07 21:23N 34°37' E 135°26'6 7.0
2016-Dec-07 20:33N 34°36' E 135°19'1817.6
2016-Dec-07 19:33N 34°37' E 134°58'1 0.0
2016-Dec-06 14:32N 34°37' E 134°57'1818.2
2016-Dec-06 13:33N 34°37' E 135°18'6 6.0
2016-Dec-06 12:32N 34°37' E 135°26'0 0.0
2016-Dec-06 11:32N 34°37' E 135°26'0 0.0
2016-Dec-06 10:32N 34°37' E 135°26'0 0.0
2016-Dec-06 09:32N 34°37' E 135°26'0 0.0
2016-Dec-06 08:32N 34°37' E 135°26'0 0.0
2016-Dec-06 07:32N 34°37' E 135°26'0 0.0
2016-Dec-06 06:32N 34°37' E 135°26'0 0.0
2016-Dec-06 05:32N 34°37' E 135°26'0 0.0
2016-Dec-06 04:26N 34°37' E 135°26'0 0.0
2016-Dec-06 03:32N 34°37' E 135°26'0 0.0
2016-Dec-06 02:33N 34°37' E 135°26'0 0.0
2016-Dec-06 01:20N 34°37' E 135°26'0 0.0
2016-Dec-06 00:32N 34°37' E 135°26'0 0.0
2016-Dec-05 23:26N 34°37' E 135°26'0 0.0
2016-Dec-05 22:09N 34°37' E 135°26'0 0.0
2016-Dec-05 21:26N 34°37' E 135°26'5 6.2
2016-Dec-05 20:33N 34°36' E 135°19'1817.6
2016-Dec-05 19:33N 34°37' E 134°58'2 0.1
2016-Dec-04 14:33N 34°36' E 134°55'1918.7
2016-Dec-04 13:33N 34°36' E 135°18'7 5.5
2016-Dec-04 12:21N 34°37' E 135°26'0 0.0
2016-Dec-04 11:33N 34°37' E 135°26'0 0.0
2016-Dec-04 10:33N 34°37' E 135°26'0 0.0
2016-Dec-04 09:27N 34°37' E 135°26'0 0.0
2016-Dec-04 08:33N 34°37' E 135°26'0 0.0
2016-Dec-04 07:27N 34°37' E 135°26'0 0.0
2016-Dec-04 06:27N 34°37' E 135°26'0 0.0
2016-Dec-04 05:33N 34°37' E 135°26'0 0.0
2016-Dec-04 04:27N 34°37' E 135°26'0 0.0
2016-Dec-04 03:33N 34°37' E 135°26'0 0.0
2016-Dec-04 02:27N 34°37' E 135°26'0 0.0
2016-Dec-04 01:27N 34°37' E 135°26'0 0.0
2016-Dec-04 00:21N 34°37' E 135°26'0 0.0
2016-Dec-03 23:33N 34°37' E 135°26'0 0.0
2016-Dec-03 22:33N 34°37' E 135°26'0 0.0
2016-Dec-03 21:33N 34°37' E 135°26'5 4.9
2016-Dec-03 20:33N 34°36' E 135°20'1717.4
2016-Dec-03 19:33N 34°37' E 134°59'3 0.1
2016-Dec-02 14:30N 34°36' E 134°56'1919.6
2016-Dec-02 13:33N 34°36' E 135°18'6 6.2
2016-Dec-02 12:32N 34°37' E 135°26'0 0.0
2016-Dec-02 11:32N 34°37' E 135°26'0 0.0
2016-Dec-02 10:20N 34°37' E 135°26'0 0.0
2016-Dec-02 09:32N 34°37' E 135°26'0 0.0
2016-Dec-02 08:26N 34°37' E 135°26'0 0.0
2016-Dec-02 07:32N 34°37' E 135°26'0 0.0
2016-Dec-02 06:32N 34°37' E 135°26'0 0.0
2016-Dec-02 05:32N 34°37' E 135°26'0 0.0
2016-Dec-02 04:32N 34°37' E 135°26'0 0.0
2016-Dec-02 03:14N 34°37' E 135°26'0 0.0
2016-Dec-02 02:26N 34°37' E 135°26'0 0.0
2016-Dec-02 01:20N 34°37' E 135°26'0 0.0
2016-Dec-01 23:26N 34°37' E 135°26'0 0.0
2016-Dec-01 22:26N 34°37' E 135°26'0 0.0
2016-Dec-01 21:32N 34°37' E 135°26'6 5.7
2016-Dec-01 20:33N 34°36' E 135°19'1717.0
2016-Dec-01 19:34N 34°37' E 134°59'3 0.1
2016-Nov-30 14:33N 34°36' E 134°56'1919.1
2016-Nov-30 13:34N 34°37' E 135°18'6 1.8
2016-Nov-30 10:14N 34°37' E 135°26'0 0.0
2016-Nov-30 09:20N 34°37' E 135°26'0 0.0
2016-Nov-30 08:32N 34°37' E 135°26'0 0.0
2016-Nov-30 06:32N 34°37' E 135°26'0 0.0
2016-Nov-30 05:32N 34°37' E 135°26'0 0.0
2016-Nov-30 04:32N 34°37' E 135°26'0 0.0
2016-Nov-30 03:20N 34°37' E 135°26'0 0.0
2016-Nov-30 02:08N 34°37' E 135°26'0 0.0
2016-Nov-30 00:14N 34°37' E 135°26'0 0.0
2016-Nov-29 23:26N 34°37' E 135°26'0 0.0
2016-Nov-29 21:10N 34°37' E 135°26'610.6
2016-Nov-29 20:33N 34°36' E 135°18'1716.6
2016-Nov-29 19:33N 34°37' E 134°58'  

Dump ship's entire track history